createdAt,value
2023-02-12T00:00:20.975Z,101727.01
2023-02-12T00:01:45.226Z,101726.35
2023-02-12T00:02:48.111Z,101728.95
2023-02-12T00:03:51.413Z,101732.66
2023-02-12T00:04:54.357Z,101736.95
2023-02-12T00:06:01.494Z,101736.92
2023-02-12T00:07:04.407Z,101733.52
2023-02-12T00:08:08.745Z,101734.10
2023-02-12T00:09:11.621Z,101733.19
2023-02-12T00:10:14.438Z,101734.80
2023-02-12T00:11:20.626Z,101737.64
2023-02-12T00:12:23.461Z,101743.60
2023-02-12T00:13:26.334Z,101747.38
2023-02-12T00:14:29.852Z,101745.94
2023-02-12T00:15:34.454Z,101751.27
2023-02-12T00:16:38.835Z,101754.42
2023-02-12T00:17:41.886Z,101752.44
2023-02-12T00:18:45.495Z,101755.67
2023-02-12T00:19:48.956Z,101762.02
2023-02-12T00:20:51.857Z,101760.70
2023-02-12T00:21:54.721Z,101764.02
2023-02-12T00:22:57.681Z,101769.41
2023-02-12T00:24:00.553Z,101770.38
2023-02-12T00:25:04.137Z,101774.05
2023-02-12T00:26:12.082Z,101778.67
2023-02-12T00:27:15.053Z,101782.89
2023-02-12T00:28:18.114Z,101786.02
2023-02-12T00:29:21.062Z,101788.35
2023-02-12T00:30:23.963Z,101788.30
2023-02-12T00:31:29.810Z,101789.91
2023-02-12T00:32:32.726Z,101796.95
2023-02-12T00:33:35.755Z,101799.28
2023-02-12T00:34:38.770Z,101796.21
2023-02-12T00:35:41.637Z,101794.42
2023-02-12T00:36:44.504Z,101798.88
2023-02-12T00:37:47.370Z,101797.95
2023-02-12T00:38:52.998Z,101801.08
2023-02-12T00:39:56.001Z,101802.55
2023-02-12T00:40:59.092Z,101804.34
2023-02-12T00:42:01.967Z,101802.87
2023-02-12T00:43:06.199Z,101804.53
2023-02-12T00:44:09.235Z,101807.09
2023-02-12T00:45:12.082Z,101803.48
2023-02-12T00:46:15.562Z,101801.90
2023-02-12T00:47:19.722Z,101808.61
2023-02-12T00:48:26.526Z,101815.95
2023-02-12T00:49:34.780Z,101818.38
2023-02-12T00:50:38.426Z,101818.10
2023-02-12T00:51:42.914Z,101818.44
2023-02-12T00:52:46.824Z,101820.33
2023-02-12T00:53:49.858Z,101819.52
2023-02-12T00:54:52.771Z,101820.33
2023-02-12T00:55:56.366Z,101825.45
2023-02-12T00:56:59.617Z,101827.86
2023-02-12T00:58:05.875Z,101830.91
2023-02-12T00:59:08.793Z,101825.92
2023-02-12T01:00:14.649Z,101827.28
2023-02-12T01:01:18.347Z,101830.15
2023-02-12T01:02:21.424Z,101832.61
2023-02-12T01:03:24.933Z,101834.58
2023-02-12T01:04:28.618Z,101830.08
2023-02-12T01:05:31.981Z,101824.43
2023-02-12T01:06:34.887Z,101827.81
2023-02-12T01:07:38.758Z,101831.41
2023-02-12T01:08:41.614Z,101836.23
2023-02-12T01:09:44.652Z,101845.40
2023-02-12T01:10:55.185Z,101845.88
2023-02-12T01:11:58.112Z,101845.73
2023-02-12T01:13:01.628Z,101845.07
2023-02-12T01:14:05.725Z,101847.36
2023-02-12T01:15:12.980Z,101852.70
2023-02-12T01:16:19.388Z,101859.80
2023-02-12T01:17:22.309Z,101867.48
2023-02-12T01:18:25.512Z,101861.69
2023-02-12T01:19:28.684Z,101862.25
2023-02-12T01:20:31.598Z,101860.13
2023-02-12T01:21:35.586Z,101860.16
2023-02-12T01:22:38.955Z,101859.32
2023-02-12T01:23:42.958Z,101856.32
2023-02-12T01:24:45.858Z,101863.13
2023-02-12T01:25:48.662Z,101869.38
2023-02-12T01:26:51.527Z,101870.48
2023-02-12T01:27:54.573Z,101873.38
2023-02-12T01:29:03.299Z,101874.03
2023-02-12T01:30:08.792Z,101877.61
2023-02-12T01:31:15.413Z,101881.17
2023-02-12T01:32:18.538Z,101875.94
2023-02-12T01:33:21.515Z,101879.30
2023-02-12T01:34:24.670Z,101875.92
2023-02-12T01:35:28.537Z,101875.86
2023-02-12T01:36:32.337Z,101875.16
2023-02-12T01:37:37.296Z,101879.02
2023-02-12T01:38:40.784Z,101877.86
2023-02-12T01:39:44.483Z,101882.02
2023-02-12T01:40:47.356Z,101886.48
2023-02-12T01:41:50.282Z,101881.36
2023-02-12T01:42:53.381Z,101887.45
2023-02-12T01:44:17.634Z,101885.59
2023-02-12T01:45:22.119Z,101880.95
2023-02-12T01:46:25.441Z,101877.57
2023-02-12T01:47:28.394Z,101880.55
2023-02-12T01:48:44.695Z,101881.56
2023-02-12T01:49:49.098Z,101887.05
2023-02-12T01:50:54.835Z,101894.75
2023-02-12T01:52:26.125Z,101890.25
2023-02-12T01:53:35.860Z,101888.58
2023-02-12T01:54:39.214Z,101882.45
2023-02-12T01:55:43.028Z,101882.65
2023-02-12T01:56:46.250Z,101880.41
2023-02-12T01:57:49.458Z,101886.44
2023-02-12T01:58:55.760Z,101893.92
2023-02-12T02:00:01.875Z,101897.54
2023-02-12T02:01:08.364Z,101901.52
2023-02-12T02:02:11.541Z,101908.33
2023-02-12T02:03:14.915Z,101905.34
2023-02-12T02:04:24.049Z,101911.41
2023-02-12T02:05:38.488Z,101908.61
2023-02-12T02:07:03.249Z,101912.84
2023-02-12T02:08:06.367Z,101912.63
2023-02-12T02:09:09.647Z,101917.05
2023-02-12T02:10:12.830Z,101916.73
2023-02-12T02:11:34.422Z,101921.35
2023-02-12T02:12:57.066Z,101928.67
2023-02-12T02:14:19.127Z,101925.88
2023-02-12T02:15:25.220Z,101925.35
2023-02-12T02:16:30.721Z,101928.48
2023-02-12T02:17:47.252Z,101927.98
2023-02-12T02:18:50.062Z,101931.77
2023-02-12T02:20:11.180Z,101932.09
2023-02-12T02:21:38.407Z,101942.02
2023-02-12T02:22:51.000Z,101943.25
2023-02-12T02:24:06.667Z,101939.26
2023-02-12T02:25:30.962Z,101942.30
2023-02-12T02:26:39.126Z,101938.44
2023-02-12T02:27:51.199Z,101933.30
2023-02-12T02:29:03.177Z,101937.88
2023-02-12T02:30:47.382Z,101938.76
2023-02-12T02:32:03.124Z,101951.34
2023-02-12T02:33:21.318Z,101960.79
2023-02-12T02:34:40.786Z,101960.66
2023-02-12T02:36:00.806Z,101966.67
2023-02-12T02:37:23.346Z,101970.04
2023-02-12T02:38:40.527Z,101969.31
2023-02-12T02:39:52.644Z,101971.59
2023-02-12T02:41:12.177Z,101972.13
2023-02-12T02:42:24.761Z,101967.16
2023-02-12T02:43:35.596Z,101970.39
2023-02-12T02:44:50.826Z,101972.31
2023-02-12T02:46:12.062Z,101983.66
2023-02-12T02:47:17.305Z,101989.20
2023-02-12T02:48:29.477Z,101989.06
2023-02-12T02:49:39.730Z,101985.77
2023-02-12T02:50:49.458Z,101988.89
2023-02-12T02:51:57.970Z,101988.83
2023-02-12T02:53:12.605Z,101991.94
2023-02-12T02:54:31.113Z,101993.79
2023-02-12T02:55:43.143Z,102004.03
2023-02-12T02:56:49.113Z,102009.59
2023-02-12T02:58:02.713Z,102006.84
2023-02-12T02:59:26.934Z,102012.34
2023-02-12T03:00:44.084Z,102018.76
2023-02-12T03:02:12.897Z,102023.91
2023-02-12T03:03:37.190Z,102031.40
2023-02-12T03:04:44.548Z,102032.32
2023-02-12T03:05:50.958Z,102035.84
2023-02-12T03:07:00.902Z,102030.39
2023-02-12T03:08:14.533Z,102035.13
2023-02-12T03:09:59.026Z,102037.98
2023-02-12T03:11:09.782Z,102045.14
2023-02-12T03:12:29.169Z,102050.13
2023-02-12T03:13:46.489Z,102055.66
2023-02-12T03:14:59.289Z,102059.36
2023-02-12T03:16:09.129Z,102059.92
2023-02-12T03:17:27.269Z,102060.27
2023-02-12T03:18:46.043Z,102062.39
2023-02-12T03:19:59.319Z,102068.58
2023-02-12T03:21:09.298Z,102066.34
2023-02-12T03:22:21.434Z,102071.08
2023-02-12T03:23:34.448Z,102072.80
2023-02-12T03:24:44.628Z,102071.73
2023-02-12T03:25:57.205Z,102074.95
2023-02-12T03:27:22.785Z,102078.81
2023-02-12T03:28:38.423Z,102082.71
2023-02-12T03:29:41.374Z,102081.44
2023-02-12T03:31:15.242Z,102082.66
2023-02-12T03:32:28.447Z,102089.82
2023-02-12T03:33:45.066Z,102090.03
2023-02-12T03:34:57.342Z,102088.33
2023-02-12T03:36:07.768Z,102088.50
2023-02-12T03:37:52.042Z,102089.89
2023-02-12T03:38:58.337Z,102092.76
2023-02-12T03:40:21.510Z,102091.31
2023-02-12T03:41:37.498Z,102091.15
2023-02-12T03:42:40.353Z,102095.44
2023-02-12T03:44:05.539Z,102095.81
2023-02-12T03:45:14.663Z,102100.44
2023-02-12T03:46:24.083Z,102100.06
2023-02-12T03:47:51.462Z,102107.77
2023-02-12T03:49:04.691Z,102113.15
2023-02-12T03:50:20.248Z,102110.04
2023-02-12T03:51:38.380Z,102110.86
2023-02-12T03:52:42.063Z,102117.80
2023-02-12T03:53:45.455Z,102119.19
2023-02-12T03:54:48.661Z,102122.27
2023-02-12T03:55:57.075Z,102125.42
2023-02-12T03:57:09.741Z,102130.55
2023-02-12T03:58:19.326Z,102136.71
2023-02-12T03:59:24.450Z,102138.88
2023-02-12T04:00:28.297Z,102142.77
2023-02-12T04:01:34.236Z,102144.27
2023-02-12T04:02:37.316Z,102146.98
2023-02-12T04:03:41.733Z,102146.08
2023-02-12T04:04:46.554Z,102144.17
2023-02-12T04:05:49.595Z,102150.98
2023-02-12T04:06:54.068Z,102150.31
2023-02-12T04:07:59.308Z,102150.75
2023-02-12T04:09:09.393Z,102151.45
2023-02-12T04:10:13.486Z,102146.45
2023-02-12T04:11:38.145Z,102147.19
2023-02-12T04:12:52.349Z,102147.16
2023-02-12T04:13:58.103Z,102147.71
2023-02-12T04:15:10.857Z,102147.58
2023-02-12T04:16:24.179Z,102148.25
2023-02-12T04:17:56.101Z,102150.08
2023-02-12T04:18:59.360Z,102152.00
2023-02-12T04:20:25.194Z,102153.94
2023-02-12T04:21:46.998Z,102159.98
2023-02-12T04:23:18.004Z,102164.09
2023-02-12T04:24:52.853Z,102162.41
2023-02-12T04:26:08.515Z,102159.78
2023-02-12T04:27:23.084Z,102165.23
2023-02-12T04:28:36.236Z,102162.92
2023-02-12T04:29:57.891Z,102162.60
2023-02-12T04:31:06.386Z,102161.57
2023-02-12T04:32:18.487Z,102166.84
2023-02-12T04:33:25.579Z,102167.31
2023-02-12T04:34:35.838Z,102169.52
2023-02-12T04:35:52.065Z,102165.83
2023-02-12T04:37:30.836Z,102167.20
2023-02-12T04:38:42.129Z,102168.16
2023-02-12T04:39:46.285Z,102171.06
2023-02-12T04:40:49.884Z,102171.97
2023-02-12T04:41:53.055Z,102171.76
2023-02-12T04:42:55.989Z,102170.61
2023-02-12T04:43:58.860Z,102171.62
2023-02-12T04:45:01.763Z,102169.03
2023-02-12T04:46:07.349Z,102165.36
2023-02-12T04:47:15.217Z,102165.77
2023-02-12T04:48:18.111Z,102166.33
2023-02-12T04:49:22.824Z,102173.54
2023-02-12T04:50:27.119Z,102174.91
2023-02-12T04:51:30.029Z,102175.52
2023-02-12T04:52:32.842Z,102177.21
2023-02-12T04:53:35.764Z,102177.21
2023-02-12T04:54:38.819Z,102180.36
2023-02-12T04:55:42.488Z,102182.72
2023-02-12T04:56:46.212Z,102186.65
2023-02-12T04:57:49.307Z,102185.65
2023-02-12T04:58:53.752Z,102192.13
2023-02-12T04:59:56.629Z,102190.90
2023-02-12T05:01:00.196Z,102188.45
2023-02-12T05:02:03.180Z,102195.04
2023-02-12T05:03:06.454Z,102192.84
2023-02-12T05:04:13.146Z,102192.94
2023-02-12T05:05:16.161Z,102197.95
2023-02-12T05:06:19.248Z,102206.00
2023-02-12T05:07:22.178Z,102205.59
2023-02-12T05:08:25.081Z,102213.30
2023-02-12T05:09:28.070Z,102211.20
2023-02-12T05:10:30.929Z,102213.90
2023-02-12T05:11:33.815Z,102215.39
2023-02-12T05:12:36.663Z,102220.91
2023-02-12T05:13:39.523Z,102217.98
2023-02-12T05:14:42.394Z,102221.06
2023-02-12T05:15:45.332Z,102224.67
2023-02-12T05:16:48.248Z,102226.83
2023-02-12T05:17:51.070Z,102231.64
2023-02-12T05:18:54.015Z,102228.52
2023-02-12T05:19:56.883Z,102232.11
2023-02-12T05:21:03.081Z,102233.57
2023-02-12T05:22:05.944Z,102230.95
2023-02-12T05:23:08.824Z,102233.44
2023-02-12T05:24:11.695Z,102235.39
2023-02-12T05:25:15.120Z,102235.79
2023-02-12T05:26:20.491Z,102233.49
2023-02-12T05:27:23.708Z,102235.15
2023-02-12T05:28:27.698Z,102239.08
2023-02-12T05:29:30.566Z,102243.77
2023-02-12T05:30:33.403Z,102249.59
2023-02-12T05:31:36.468Z,102249.03
2023-02-12T05:32:39.508Z,102249.35
2023-02-12T05:33:44.399Z,102249.02
2023-02-12T05:34:47.259Z,102248.59
2023-02-12T05:35:50.192Z,102250.98
2023-02-12T05:36:53.087Z,102250.14
2023-02-12T05:37:55.946Z,102249.81
2023-02-12T05:39:02.998Z,102253.41
2023-02-12T05:40:06.953Z,102259.13
2023-02-12T05:41:12.346Z,102261.83
2023-02-12T05:42:15.218Z,102265.02
2023-02-12T05:43:18.066Z,102268.93
2023-02-12T05:44:20.949Z,102272.27
2023-02-12T05:45:28.105Z,102273.90
2023-02-12T05:46:31.519Z,102277.20
2023-02-12T05:47:34.446Z,102275.73
2023-02-12T05:48:38.236Z,102278.73
2023-02-12T05:49:41.247Z,102282.32
2023-02-12T05:50:44.105Z,102282.35
2023-02-12T05:51:46.929Z,102286.14
2023-02-12T05:52:49.797Z,102288.30
2023-02-12T05:54:00.139Z,102293.65
2023-02-12T05:55:03.683Z,102295.04
2023-02-12T05:56:16.705Z,102295.31
2023-02-12T05:57:19.721Z,102297.67
2023-02-12T05:58:22.556Z,102301.01
2023-02-12T05:59:25.595Z,102299.13
2023-02-12T06:00:28.477Z,102301.16
2023-02-12T06:01:35.669Z,102305.95
2023-02-12T06:02:38.623Z,102311.11
2023-02-12T06:03:41.870Z,102307.08
2023-02-12T06:04:46.935Z,102311.69
2023-02-12T06:05:52.515Z,102313.71
2023-02-12T06:06:56.385Z,102313.48
2023-02-12T06:07:59.295Z,102316.52
2023-02-12T06:09:03.053Z,102320.55
2023-02-12T06:10:06.824Z,102324.64
2023-02-12T06:11:14.038Z,102326.83
2023-02-12T06:12:16.890Z,102323.16
2023-02-12T06:13:19.706Z,102330.21
2023-02-12T06:14:22.744Z,102331.95
2023-02-12T06:15:25.641Z,102332.02
2023-02-12T06:16:29.281Z,102334.09
2023-02-12T06:17:34.436Z,102337.28
2023-02-12T06:18:37.346Z,102335.40
2023-02-12T06:19:40.228Z,102337.70
2023-02-12T06:20:43.076Z,102338.00
2023-02-12T06:21:46.903Z,102337.41
2023-02-12T06:22:49.864Z,102339.86
2023-02-12T06:23:53.433Z,102340.27
2023-02-12T06:24:56.364Z,102341.56
2023-02-12T06:25:59.545Z,102342.75
2023-02-12T06:27:03.272Z,102343.16
2023-02-12T06:28:06.208Z,102343.52
2023-02-12T06:29:09.145Z,102347.10
2023-02-12T06:30:12.622Z,102346.87
2023-02-12T06:31:28.260Z,102348.77
2023-02-12T06:32:31.240Z,102349.80
2023-02-12T06:33:35.772Z,102352.95
2023-02-12T06:34:38.635Z,102355.29
2023-02-12T06:35:41.550Z,102353.48
2023-02-12T06:36:46.057Z,102353.05
2023-02-12T06:37:48.984Z,102352.88
2023-02-12T06:38:52.510Z,102353.52
2023-02-12T06:39:55.368Z,102356.23
2023-02-12T06:41:02.272Z,102354.16
2023-02-12T06:42:05.224Z,102357.40
2023-02-12T06:43:08.174Z,102356.41
2023-02-12T06:44:12.889Z,102357.11
2023-02-12T06:45:15.899Z,102358.83
2023-02-12T06:46:18.777Z,102359.65
2023-02-12T06:47:22.050Z,102360.74
2023-02-12T06:48:24.952Z,102363.71
2023-02-12T06:49:27.892Z,102358.71
2023-02-12T06:50:30.974Z,102356.90
2023-02-12T06:51:33.958Z,102364.09
2023-02-12T06:52:36.851Z,102361.20
2023-02-12T06:53:40.619Z,102362.72
2023-02-12T06:54:43.508Z,102364.70
2023-02-12T06:55:46.635Z,102369.98
2023-02-12T06:56:49.691Z,102372.58
2023-02-12T06:57:52.513Z,102366.13
2023-02-12T06:58:58.718Z,102364.61
2023-02-12T07:00:01.759Z,102364.61
2023-02-12T07:01:15.535Z,102369.11
2023-02-12T07:02:18.406Z,102367.52
2023-02-12T07:03:21.412Z,102369.10
2023-02-12T07:04:24.371Z,102374.88
2023-02-12T07:05:27.260Z,102377.72
2023-02-12T07:06:33.658Z,102378.26
2023-02-12T07:07:36.648Z,102379.47
2023-02-12T07:08:39.613Z,102380.14
2023-02-12T07:09:42.494Z,102375.13
2023-02-12T07:10:49.126Z,102376.09
2023-02-12T07:11:52.253Z,102378.45
2023-02-12T07:12:55.117Z,102380.09
2023-02-12T07:13:58.590Z,102380.88
2023-02-12T07:15:02.169Z,102381.42
2023-02-12T07:16:07.362Z,102387.98
2023-02-12T07:17:10.432Z,102386.63
2023-02-12T07:18:13.422Z,102391.67
2023-02-12T07:19:16.930Z,102392.30
2023-02-12T07:20:19.913Z,102392.96
2023-02-12T07:21:22.886Z,102392.75
2023-02-12T07:22:25.818Z,102392.66
2023-02-12T07:23:28.791Z,102393.86
2023-02-12T07:24:31.706Z,102394.19
2023-02-12T07:25:35.135Z,102395.27
2023-02-12T07:26:38.617Z,102399.90
2023-02-12T07:27:41.848Z,102399.86
2023-02-12T07:28:44.766Z,102402.68
2023-02-12T07:29:47.610Z,102402.02
2023-02-12T07:30:50.717Z,102397.52
2023-02-12T07:31:53.589Z,102400.08
2023-02-12T07:32:56.468Z,102396.03
2023-02-12T07:34:00.954Z,102396.98
2023-02-12T07:35:03.967Z,102396.42
2023-02-12T07:36:13.531Z,102391.65
2023-02-12T07:37:17.057Z,102389.75
2023-02-12T07:38:19.885Z,102391.15
2023-02-12T07:39:23.014Z,102391.81
2023-02-12T07:40:26.019Z,102389.23
2023-02-12T07:41:32.448Z,102388.64
2023-02-12T07:42:35.311Z,102386.14
2023-02-12T07:43:43.816Z,102389.90
2023-02-12T07:44:46.651Z,102390.80
2023-02-12T07:45:49.598Z,102395.77
2023-02-12T07:46:52.556Z,102395.06
2023-02-12T07:47:55.513Z,102399.48
2023-02-12T07:49:00.668Z,102395.24
2023-02-12T07:50:03.620Z,102399.11
2023-02-12T07:51:09.182Z,102395.28
2023-02-12T07:52:13.511Z,102393.83
2023-02-12T07:53:16.548Z,102393.21
2023-02-12T07:54:19.452Z,102393.66
2023-02-12T07:55:22.708Z,102400.39
2023-02-12T07:56:31.125Z,102401.50
2023-02-12T07:57:35.290Z,102403.27
2023-02-12T07:58:39.478Z,102407.30
2023-02-12T07:59:42.378Z,102408.90
2023-02-12T08:00:45.284Z,102413.90
2023-02-12T08:01:50.509Z,102416.65
2023-02-12T08:02:54.332Z,102418.15
2023-02-12T08:04:03.056Z,102414.30
2023-02-12T08:05:06.457Z,102416.90
2023-02-12T08:06:14.289Z,102418.77
2023-02-12T08:07:18.378Z,102420.63
2023-02-12T08:08:21.236Z,102423.61
2023-02-12T08:09:27.825Z,102427.22
2023-02-12T08:10:32.400Z,102429.23
2023-02-12T08:11:36.915Z,102426.81
2023-02-12T08:12:39.925Z,102429.66
2023-02-12T08:13:42.897Z,102429.10
2023-02-12T08:14:45.893Z,102430.98
2023-02-12T08:15:49.132Z,102433.04
2023-02-12T08:16:52.472Z,102435.35
2023-02-12T08:17:55.725Z,102438.31
2023-02-12T08:19:10.763Z,102435.16
2023-02-12T08:20:19.108Z,102437.59
2023-02-12T08:21:27.698Z,102438.73
2023-02-12T08:22:30.589Z,102439.07
2023-02-12T08:23:34.326Z,102439.28
2023-02-12T08:24:37.279Z,102446.16
2023-02-12T08:25:40.114Z,102443.58
2023-02-12T08:26:43.086Z,102445.94
2023-02-12T08:27:45.965Z,102443.51
2023-02-12T08:28:53.890Z,102445.86
2023-02-12T08:29:56.726Z,102444.38
2023-02-12T08:31:07.623Z,102446.09
2023-02-12T08:32:14.133Z,102446.06
2023-02-12T08:33:17.133Z,102441.82
2023-02-12T08:34:22.740Z,102446.71
2023-02-12T08:35:26.055Z,102444.45
2023-02-12T08:36:35.144Z,102446.73
2023-02-12T08:37:38.042Z,102448.15
2023-02-12T08:38:42.160Z,102449.88
2023-02-12T08:39:45.073Z,102451.88
2023-02-12T08:40:47.928Z,102451.52
2023-02-12T08:41:53.935Z,102451.79
2023-02-12T08:42:56.740Z,102447.08
2023-02-12T08:44:02.264Z,102446.05
2023-02-12T08:45:05.539Z,102445.36
2023-02-12T08:46:22.790Z,102442.42
2023-02-12T08:47:25.761Z,102442.92
2023-02-12T08:48:28.612Z,102443.16
2023-02-12T08:49:31.531Z,102443.89
2023-02-12T08:50:34.565Z,102446.84
2023-02-12T08:51:39.842Z,102442.03
2023-02-12T08:52:43.981Z,102442.08
2023-02-12T08:53:51.797Z,102438.80
2023-02-12T08:54:54.766Z,102435.13
2023-02-12T08:55:57.823Z,102431.11
2023-02-12T08:57:02.586Z,102432.16
2023-02-12T08:58:05.446Z,102424.29
2023-02-12T08:59:10.518Z,102429.29
2023-02-12T09:00:13.908Z,102427.28
2023-02-12T09:01:20.296Z,102424.18
2023-02-12T09:02:23.223Z,102427.36
2023-02-12T09:03:26.240Z,102428.92
2023-02-12T09:04:29.704Z,102435.98
2023-02-12T09:05:32.623Z,102441.73
2023-02-12T09:06:35.879Z,102444.27
2023-02-12T09:07:38.735Z,102446.30
2023-02-12T09:08:41.700Z,102450.77
2023-02-12T09:09:44.588Z,102446.87
2023-02-12T09:10:47.579Z,102454.17
2023-02-12T09:11:51.014Z,102455.21
2023-02-12T09:12:53.831Z,102453.95
2023-02-12T09:13:59.547Z,102453.41
2023-02-12T09:15:02.845Z,102451.85
2023-02-12T09:16:07.019Z,102456.50
2023-02-12T09:17:09.908Z,102455.48
2023-02-12T09:18:14.620Z,102457.77
2023-02-12T09:19:17.664Z,102454.27
2023-02-12T09:20:20.533Z,102459.19
2023-02-12T09:21:23.453Z,102456.75
2023-02-12T09:22:26.340Z,102457.92
2023-02-12T09:23:29.416Z,102452.41
2023-02-12T09:24:33.184Z,102455.86
2023-02-12T09:25:43.385Z,102456.31
2023-02-12T09:26:46.310Z,102457.22
2023-02-12T09:27:49.219Z,102457.45
2023-02-12T09:28:53.194Z,102456.35
2023-02-12T09:29:56.054Z,102460.80
2023-02-12T09:30:59.042Z,102460.16
2023-02-12T09:32:05.590Z,102460.27
2023-02-12T09:33:10.935Z,102459.43
2023-02-12T09:34:14.155Z,102460.71
2023-02-12T09:35:18.569Z,102459.23
2023-02-12T09:36:21.590Z,102460.02
2023-02-12T09:37:24.418Z,102460.27
2023-02-12T09:38:27.289Z,102465.16
2023-02-12T09:39:30.887Z,102472.35
2023-02-12T09:40:42.974Z,102474.69
2023-02-12T09:42:09.507Z,102476.89
2023-02-12T09:43:12.335Z,102475.89
2023-02-12T09:44:22.397Z,102478.59
2023-02-12T09:45:30.418Z,102479.98
2023-02-12T09:46:35.719Z,102479.97
2023-02-12T09:47:50.684Z,102480.73
2023-02-12T09:49:26.087Z,102481.06
2023-02-12T09:50:43.707Z,102481.80
2023-02-12T09:51:53.969Z,102485.58
2023-02-12T09:52:59.281Z,102483.54
2023-02-12T09:54:11.202Z,102479.84
2023-02-12T09:55:19.604Z,102482.44
2023-02-12T09:56:24.495Z,102484.64
2023-02-12T09:57:33.677Z,102480.41
2023-02-12T09:58:44.128Z,102479.40
2023-02-12T09:59:54.179Z,102478.88
2023-02-12T10:00:57.273Z,102478.89
2023-02-12T10:02:00.329Z,102480.41
2023-02-12T10:03:05.992Z,102481.95
2023-02-12T10:04:09.169Z,102483.06
2023-02-12T10:05:32.345Z,102480.50
2023-02-12T10:07:04.766Z,102485.63
2023-02-12T10:08:31.718Z,102484.80
2023-02-12T10:10:08.648Z,102485.06
2023-02-12T10:11:23.097Z,102487.11
2023-02-12T10:12:48.856Z,102486.59
2023-02-12T10:14:00.136Z,102485.63
2023-02-12T10:15:15.146Z,102489.36
2023-02-12T10:16:30.269Z,102489.63
2023-02-12T10:17:49.050Z,102489.36
2023-02-12T10:18:57.801Z,102488.27
2023-02-12T10:20:07.912Z,102483.77
2023-02-12T10:21:28.789Z,102481.80
2023-02-12T10:22:56.580Z,102479.42
2023-02-12T10:24:24.683Z,102481.45
2023-02-12T10:25:40.265Z,102482.82
2023-02-12T10:26:52.999Z,102486.63
2023-02-12T10:28:00.076Z,102489.18
2023-02-12T10:29:17.330Z,102489.13
2023-02-12T10:30:22.915Z,102486.52
2023-02-12T10:31:31.332Z,102487.36
2023-02-12T10:32:36.947Z,102482.40
2023-02-12T10:33:44.131Z,102492.00
2023-02-12T10:34:49.762Z,102489.45
2023-02-12T10:35:59.766Z,102490.85
2023-02-12T10:37:21.121Z,102488.61
2023-02-12T10:38:30.381Z,102480.90
2023-02-12T10:39:37.819Z,102481.48
2023-02-12T10:40:44.812Z,102481.23
2023-02-12T10:41:56.628Z,102479.47
2023-02-12T10:43:01.908Z,102478.68
2023-02-12T10:44:04.930Z,102475.85
2023-02-12T10:45:15.111Z,102473.85
2023-02-12T10:46:18.085Z,102477.72
2023-02-12T10:47:23.105Z,102471.84
2023-02-12T10:48:38.194Z,102474.30
2023-02-12T10:49:41.129Z,102487.04
2023-02-12T10:50:50.171Z,102483.05
2023-02-12T10:52:36.555Z,102491.14
2023-02-12T10:53:42.881Z,102486.52
2023-02-12T10:54:49.203Z,102482.30
2023-02-12T10:56:06.706Z,102479.10
2023-02-12T10:57:26.324Z,102479.86
2023-02-12T10:58:29.810Z,102479.69
2023-02-12T10:59:34.248Z,102476.42
2023-02-12T11:00:38.892Z,102477.09
2023-02-12T11:01:47.723Z,102477.59
2023-02-12T11:03:21.700Z,102479.39
2023-02-12T11:04:27.792Z,102485.30
2023-02-12T11:05:35.920Z,102484.86
2023-02-12T11:06:40.272Z,102482.70
2023-02-12T11:07:50.434Z,102480.95
2023-02-12T11:08:54.191Z,102482.83
2023-02-12T11:09:57.797Z,102480.52
2023-02-12T11:11:31.289Z,102481.09
2023-02-12T11:12:41.013Z,102477.41
2023-02-12T11:14:07.260Z,102476.13
2023-02-12T11:15:19.615Z,102478.02
2023-02-12T11:16:41.041Z,102475.14
2023-02-12T11:17:55.058Z,102473.75
2023-02-12T11:19:01.020Z,102475.00
2023-02-12T11:20:16.110Z,102478.17
2023-02-12T11:21:23.461Z,102476.05
2023-02-12T11:22:26.465Z,102481.39
2023-02-12T11:23:41.433Z,102486.63
2023-02-12T11:24:46.956Z,102489.40
2023-02-12T11:26:01.934Z,102491.02
2023-02-12T11:27:24.355Z,102492.14
2023-02-12T11:28:28.361Z,102487.23
2023-02-12T11:29:33.855Z,102488.83
2023-02-12T11:30:48.535Z,102487.35
2023-02-12T11:32:05.020Z,102490.78
2023-02-12T11:33:27.750Z,102486.77
2023-02-12T11:34:30.764Z,102481.64
2023-02-12T11:35:36.085Z,102484.55
2023-02-12T11:36:45.508Z,102481.84
2023-02-12T11:37:48.497Z,102479.72
2023-02-12T11:38:59.071Z,102483.18
2023-02-12T11:40:02.895Z,102485.14
2023-02-12T11:41:36.599Z,102483.31
2023-02-12T11:42:41.556Z,102476.02
2023-02-12T11:43:45.486Z,102471.27
2023-02-12T11:44:53.025Z,102468.89
2023-02-12T11:45:57.191Z,102465.09
2023-02-12T11:47:28.085Z,102461.65
2023-02-12T11:48:38.488Z,102454.79
2023-02-12T11:50:03.388Z,102462.94
2023-02-12T11:51:10.151Z,102464.05
2023-02-12T11:52:23.939Z,102465.57
2023-02-12T11:53:42.451Z,102465.88
2023-02-12T11:54:49.065Z,102468.31
2023-02-12T11:56:02.102Z,102463.13
2023-02-12T11:57:05.287Z,102457.23
2023-02-12T11:58:23.195Z,102459.23
2023-02-12T11:59:38.868Z,102462.92
2023-02-12T12:01:20.279Z,102460.34
2023-02-12T12:02:33.666Z,102464.39
2023-02-12T12:03:58.525Z,102463.69
2023-02-12T12:05:13.822Z,102461.34
2023-02-12T12:06:30.539Z,102463.55
2023-02-12T12:07:36.975Z,102461.31
2023-02-12T12:08:59.465Z,102460.81
2023-02-12T12:10:20.334Z,102456.66
2023-02-12T12:11:37.347Z,102458.20
2023-02-12T12:12:55.877Z,102458.77
2023-02-12T12:14:19.913Z,102461.64
2023-02-12T12:16:06.816Z,102464.48
2023-02-12T12:17:35.715Z,102465.02
2023-02-12T12:19:12.163Z,102464.14
2023-02-12T12:20:22.747Z,102468.02
2023-02-12T12:21:41.771Z,102467.26
2023-02-12T12:23:13.639Z,102463.16
2023-02-12T12:24:22.388Z,102460.94
2023-02-12T12:25:27.314Z,102458.73
2023-02-12T12:26:34.694Z,102454.61
2023-02-12T12:28:05.840Z,102451.79
2023-02-12T12:29:50.236Z,102447.75
2023-02-12T12:31:12.815Z,102444.49
2023-02-12T12:32:18.786Z,102439.05
2023-02-12T12:33:54.664Z,102438.81
2023-02-12T12:34:57.533Z,102439.98
2023-02-12T12:36:37.921Z,102436.50
2023-02-12T12:38:24.194Z,102439.71
2023-02-12T12:39:34.944Z,102436.63
2023-02-12T12:40:55.427Z,102440.38
2023-02-12T12:42:28.375Z,102440.59
2023-02-12T12:43:44.959Z,102437.30
2023-02-12T12:44:50.438Z,102436.19
2023-02-12T12:46:22.455Z,102433.81
2023-02-12T12:47:56.544Z,102436.58
2023-02-12T12:49:25.975Z,102429.22
2023-02-12T12:50:54.684Z,102426.87
2023-02-12T12:52:03.544Z,102427.55
2023-02-12T12:53:21.444Z,102424.93
2023-02-12T12:54:59.852Z,102425.17
2023-02-12T12:56:40.674Z,102426.70
2023-02-12T12:57:52.771Z,102422.94
2023-02-12T12:59:33.491Z,102419.02
2023-02-12T13:01:01.373Z,102420.02
2023-02-12T13:02:36.746Z,102424.72
2023-02-12T13:04:31.290Z,102426.04
2023-02-12T13:05:40.395Z,102427.21